createdAt,value
2022-12-11T00:02:17.382Z,23.17
2022-12-11T00:14:21.619Z,22.45
2022-12-11T00:20:23.672Z,20.83
2022-12-11T00:26:26.173Z,23.77
2022-12-11T00:32:29.128Z,20.88
2022-12-11T00:38:32.477Z,18.38
2022-12-11T00:44:34.888Z,21.35
2022-12-11T00:50:37.917Z,20.15
2022-12-11T00:56:40.408Z,19.60
2022-12-11T01:02:42.575Z,19.80
2022-12-11T01:08:46.311Z,21.77
2022-12-11T01:14:48.452Z,19.83
2022-12-11T01:20:50.982Z,19.77
2022-12-11T01:26:53.158Z,20.33
2022-12-11T01:32:55.584Z,19.88
2022-12-11T01:38:58.974Z,20.45
2022-12-11T01:45:26.599Z,20.83
2022-12-11T01:51:31.873Z,22.45
2022-12-11T01:57:34.272Z,19.65
2022-12-11T02:03:36.528Z,20.65
2022-12-11T02:09:41.662Z,16.45
2022-12-11T02:16:02.773Z,18.27
2022-12-11T02:22:10.890Z,18.38
2022-12-11T02:28:18.886Z,18.08
2022-12-11T02:34:29.009Z,16.77
2022-12-11T02:40:33.189Z,17.45
2022-12-11T02:46:37.540Z,18.05
2022-12-11T02:52:41.984Z,18.10
2022-12-11T02:58:52.641Z,16.85
2022-12-11T03:04:58.034Z,17.42
2022-12-11T03:17:17.476Z,16.25
2022-12-11T03:23:25.778Z,16.77
2022-12-11T03:29:36.958Z,16.55
2022-12-11T03:35:49.185Z,15.65
2022-12-11T03:41:52.622Z,16.75
2022-12-11T03:47:57.230Z,15.98
2022-12-11T03:54:00.205Z,15.63
2022-12-11T04:00:05.455Z,14.25
2022-12-11T04:06:13.992Z,16.83
2022-12-11T04:12:16.392Z,14.07
2022-12-11T04:18:37.236Z,14.85
2022-12-11T04:24:39.575Z,13.90
2022-12-11T04:30:41.812Z,14.05
2022-12-11T04:36:44.142Z,12.63
2022-12-11T04:42:46.634Z,13.75
2022-12-11T04:48:55.447Z,13.98
2022-12-11T04:55:19.352Z,11.48
2022-12-11T05:01:22.776Z,12.02
2022-12-11T05:07:25.210Z,11.70
2022-12-11T05:13:28.355Z,12.45
2022-12-11T05:19:30.701Z,12.00
2022-12-11T05:25:32.860Z,10.93
2022-12-11T05:31:34.987Z,10.70
2022-12-11T05:37:37.184Z,11.98
2022-12-11T05:43:39.389Z,11.57
2022-12-11T05:49:41.610Z,12.02
2022-12-11T05:55:43.851Z,12.38
2022-12-11T06:01:46.347Z,12.43
2022-12-11T06:07:48.676Z,12.48
2022-12-11T06:13:51.315Z,11.10
2022-12-11T06:20:11.190Z,12.32
2022-12-11T06:26:14.727Z,12.70
2022-12-11T06:32:17.276Z,11.80
2022-12-11T06:38:19.589Z,12.25
2022-12-11T06:44:21.810Z,14.02
2022-12-11T06:50:23.876Z,13.43
2022-12-11T06:56:26.439Z,15.38
2022-12-11T07:02:28.749Z,16.13
2022-12-11T07:08:32.298Z,14.85
2022-12-11T07:14:34.648Z,15.75
2022-12-11T07:20:37.026Z,12.27
2022-12-11T07:26:39.438Z,11.57
2022-12-11T07:32:41.938Z,9.65
2022-12-11T07:38:44.232Z,9.52
2022-12-11T07:44:46.259Z,8.68
2022-12-11T07:50:48.466Z,8.50
2022-12-11T07:56:53.678Z,7.18
2022-12-11T08:02:56.123Z,7.40
2022-12-11T08:09:00.000Z,6.23
2022-12-11T08:15:02.488Z,5.60
2022-12-11T08:21:08.540Z,5.50
2022-12-11T08:27:10.732Z,4.10
2022-12-11T08:33:13.018Z,3.80
2022-12-11T08:45:17.502Z,3.10
2022-12-11T08:51:23.089Z,3.13
2022-12-11T08:57:25.205Z,2.65
2022-12-11T09:03:47.572Z,2.42
2022-12-11T09:09:49.893Z,2.33
2022-12-11T09:21:54.438Z,3.47
2022-12-11T09:27:56.757Z,2.85
2022-12-11T09:34:02.087Z,4.10
2022-12-11T09:40:07.757Z,4.00
2022-12-11T09:46:13.785Z,3.75
2022-12-11T09:52:32.108Z,3.92
2022-12-11T09:58:41.158Z,4.07
2022-12-11T10:04:52.582Z,4.68
2022-12-11T10:11:27.204Z,4.68
2022-12-11T10:17:32.361Z,6.55
2022-12-11T10:23:43.715Z,4.45
2022-12-11T10:29:47.342Z,4.95
2022-12-11T10:35:53.756Z,5.07
2022-12-11T10:41:57.458Z,3.92
2022-12-11T10:48:07.736Z,4.97
2022-12-11T10:54:29.502Z,5.25
2022-12-11T11:00:38.756Z,5.00
2022-12-11T11:06:41.726Z,5.47
2022-12-11T11:12:47.967Z,6.75
2022-12-11T11:18:57.168Z,4.47
2022-12-11T11:25:00.139Z,4.85
2022-12-11T11:31:04.627Z,4.72
2022-12-11T11:37:30.554Z,5.88
2022-12-11T11:43:49.328Z,3.53
2022-12-11T11:50:03.478Z,4.97
2022-12-11T11:56:21.496Z,3.95
2022-12-11T12:02:24.093Z,5.38
2022-12-11T16:56:02.447Z,4.72
2022-12-11T17:02:04.968Z,4.85
2022-12-11T17:08:07.828Z,5.03
2022-12-11T17:14:10.437Z,4.65
2022-12-11T17:20:20.842Z,3.75
2022-12-11T17:26:25.531Z,4.40
2022-12-11T17:32:27.807Z,3.28
2022-12-11T17:38:29.925Z,4.40
2022-12-11T17:44:32.176Z,3.92
2022-12-11T17:50:34.373Z,4.88
2022-12-11T17:56:37.106Z,4.30
2022-12-11T18:02:39.733Z,4.25
2022-12-11T18:08:42.594Z,3.75
2022-12-11T18:14:44.867Z,4.75
2022-12-11T18:20:48.667Z,4.90
2022-12-11T18:26:50.728Z,4.50
2022-12-11T18:32:52.852Z,5.30
2022-12-11T18:38:59.569Z,3.75
2022-12-11T18:45:02.192Z,4.13
2022-12-11T18:57:14.225Z,4.07
2022-12-11T19:03:16.761Z,4.20
2022-12-11T19:09:19.092Z,4.78
2022-12-11T19:15:24.004Z,3.90
2022-12-11T19:21:42.993Z,4.82
2022-12-11T19:27:47.313Z,5.75
2022-12-11T19:33:50.169Z,5.07
2022-12-11T19:39:52.392Z,6.75
2022-12-11T19:45:54.831Z,7.53
2022-12-11T19:51:57.074Z,7.13
2022-12-11T19:57:59.506Z,8.35
2022-12-11T20:04:07.332Z,9.05
2022-12-11T20:10:09.785Z,8.48
2022-12-11T20:16:13.510Z,8.77
2022-12-11T20:22:15.891Z,9.70
2022-12-11T20:28:18.622Z,9.32
2022-12-11T20:34:20.929Z,9.63
2022-12-11T20:40:23.152Z,9.80
2022-12-11T20:46:27.600Z,9.23
2022-12-11T20:52:29.830Z,10.98
2022-12-11T20:58:32.831Z,10.63
2022-12-11T21:04:41.300Z,10.05
2022-12-11T21:10:46.482Z,10.45
2022-12-11T21:16:48.863Z,10.50
2022-12-11T21:22:50.993Z,11.00
2022-12-11T21:28:53.590Z,8.68
2022-12-11T21:40:58.348Z,10.48
2022-12-11T21:47:00.695Z,9.55
2022-12-11T21:53:02.972Z,9.13
2022-12-11T21:59:05.867Z,9.07
2022-12-11T22:05:08.705Z,9.18
2022-12-11T22:11:11.372Z,10.00
2022-12-11T22:23:18.689Z,10.93
2022-12-11T22:29:21.010Z,10.15
2022-12-11T22:35:27.160Z,10.48
2022-12-11T22:41:32.034Z,8.13
2022-12-11T22:47:34.122Z,10.48
2022-12-11T22:53:36.849Z,9.80
2022-12-11T22:59:39.124Z,11.10
2022-12-11T23:05:41.515Z,9.93
2022-12-11T23:11:44.029Z,9.70
2022-12-11T23:17:46.522Z,10.27
2022-12-11T23:29:51.345Z,9.57
2022-12-11T23:35:53.648Z,13.13
2022-12-11T23:41:56.252Z,11.00
2022-12-11T23:47:58.718Z,9.98
2022-12-11T23:54:05.150Z,11.05
